Time;durP1;ratioP1;P1;durP2;ratioP2;P2;SDS_P1;SDS_P2;PMS_P1;PMS_P2;Temp;Humidity;BMP_temperature;BMP_pressure;BME280_temperature;BME280_humidity;BME280_pressure;Samples;Min_cycle;Max_cycle;Signal;HPM_P1;HPM_P2
2023/09/19 00:00:08;;;;;;;;;0.00;0.00;;;;;23.77;100.00;100794.06;2095587;28;46764;-62
2023/09/19 00:01:08;;;;;;;;;0.00;0.00;;;;;23.78;100.00;100793.06;2096220;27;46180;-62
2023/09/19 00:02:09;;;;;;;;;0.00;0.00;;;;;23.77;100.00;100789.50;2104993;28;46468;-62
2023/09/19 00:03:11;;;;;;;;;0.00;0.00;;;;;23.75;100.00;100788.72;2104614;28;46203;-62
2023/09/19 00:04:12;;;;;;;;;0.25;0.25;;;;;23.76;100.00;100789.63;2104944;28;46343;-61
2023/09/19 00:05:13;;;;;;;;;1.00;1.00;;;;;23.75;100.00;100795.97;2104955;27;46490;-62
2023/09/19 00:06:15;;;;;;;;;0.00;0.00;;;;;23.76;100.00;100795.91;2114164;27;46630;-61
2023/09/19 00:07:17;;;;;;;;;0.00;0.00;;;;;23.76;100.00;100790.47;2114410;27;46887;-62
2023/09/19 00:08:22;;;;;;;;;0.75;0.75;;;;;23.74;100.00;100786.13;2114042;27;47096;-62
2023/09/19 00:09:25;;;;;;;;;0.00;0.00;;;;;23.75;100.00;100795.97;2114299;27;46925;-61
2023/09/19 00:10:31;;;;;;;;;0.25;0.25;;;;;23.72;100.00;100797.09;2112623;27;45829;-62
2023/09/19 00:11:31;;;;;;;;;0.25;0.25;;;;;23.72;100.00;100799.78;2104591;27;46911;-60
2023/09/19 00:12:31;;;;;;;;;0.00;0.00;;;;;23.71;100.00;100800.78;2105841;27;46608;-62
2023/09/19 00:13:33;;;;;;;;;1.33;0.00;;;;;23.70;100.00;100790.06;2104783;28;46481;-62
2023/09/19 00:14:35;;;;;;;;;0.25;0.00;;;;;23.69;100.00;100794.63;2104167;27;46608;-62
2023/09/19 00:15:41;;;;;;;;;0.75;0.75;;;;;23.69;100.00;100802.75;2114009;27;46581;-61
2023/09/19 00:16:42;;;;;;;;;1.50;0.00;;;;;23.68;100.00;100798.31;2110803;27;47094;-60
2023/09/19 00:17:43;;;;;;;;;1.00;0.00;;;;;23.69;100.00;100794.63;2108533;27;46536;-62
2023/09/19 00:18:43;;;;;;;;;0.25;0.25;;;;;23.69;100.00;100793.75;2113902;27;46738;-61
2023/09/19 00:19:46;;;;;;;;;0.00;0.00;;;;;23.67;100.00;100788.44;2118823;27;46552;-62
2023/09/19 00:20:47;;;;;;;;;0.00;0.00;;;;;23.66;100.00;100797.56;2119962;27;46319;-62
2023/09/19 00:21:48;;;;;;;;;0.25;0.25;;;;;23.67;100.00;100795.72;2114225;27;46274;-61
2023/09/19 00:22:51;;;;;;;;;1.00;0.33;;;;;23.66;100.00;100807.53;2113952;27;46588;-61
2023/09/19 00:23:52;;;;;;;;;0.50;0.50;;;;;23.66;100.00;100807.53;2114166;27;46465;-62
2023/09/19 00:24:53;;;;;;;;;0.00;0.00;;;;;23.66;100.00;100802.13;2113484;27;46534;-62
2023/09/19 00:25:58;;;;;;;;;0.25;0.25;;;;;23.65;100.00;100806.69;2112922;27;47018;-63
2023/09/19 00:26:59;;;;;;;;;0.75;0.00;;;;;23.65;100.00;100800.38;2106834;27;46927;-61
2023/09/19 00:27:59;;;;;;;;;0.00;0.00;;;;;23.64;100.00;100804.94;2113650;27;46852;-62
2023/09/19 00:29:08;;;;;;;;;0.33;0.00;;;;;23.64;100.00;100801.38;2114080;27;46489;-62
2023/09/19 00:30:21;;;;;;;;;0.00;0.00;;;;;23.65;100.00;100803.09;2114108;27;46847;-62
2023/09/19 00:31:25;;;;;;;;;1.25;1.25;;;;;23.63;100.00;100811.34;2113852;27;46754;-62
2023/09/19 00:32:30;;;;;;;;;0.00;0.00;;;;;23.63;100.00;100807.75;2113700;27;46329;-63
2023/09/19 00:33:30;;;;;;;;;0.00;0.00;;;;;23.62;100.00;100806.00;2114123;27;46438;-61
2023/09/19 00:34:34;;;;;;;;;0.00;0.00;;;;;23.61;100.00;100809.72;2113823;27;46233;-63
2023/09/19 00:35:34;;;;;;;;;1.00;0.00;;;;;23.59;100.00;100812.53;2113956;27;45598;-61
2023/09/19 00:36:34;;;;;;;;;0.00;0.00;;;;;23.59;100.00;100809.81;2114430;27;46823;-61
2023/09/19 00:37:35;;;;;;;;;0.00;0.00;;;;;23.57;100.00;100809.03;2113969;27;46577;-62
2023/09/19 00:38:36;;;;;;;;;0.00;0.00;;;;;23.56;100.00;100804.59;2113014;27;46533;-62
2023/09/19 00:39:37;;;;;;;;;1.00;0.00;;;;;23.56;100.00;100815.44;2104889;28;46293;-61
2023/09/19 00:40:37;;;;;;;;;0.00;0.00;;;;;23.56;100.00;100811.88;2110907;27;46888;-62
2023/09/19 00:41:38;;;;;;;;;1.00;1.00;;;;;23.55;100.00;100812.84;2111058;27;45881;-62
2023/09/19 00:42:39;;;;;;;;;0.00;0.00;;;;;23.55;100.00;100811.00;2113035;27;46616;-61
2023/09/19 00:43:40;;;;;;;;;1.25;0.00;;;;;23.53;100.00;100812.09;2110296;27;46999;-62
2023/09/19 00:44:40;;;;;;;;;3.00;2.00;;;;;23.55;100.00;100818.28;2103872;28;46633;-61
2023/09/19 00:45:45;;;;;;;;;1.00;0.00;;;;;23.55;100.00;100815.56;2098137;28;46170;-60
2023/09/19 00:46:49;;;;;;;;;1.00;1.00;;;;;23.53;100.00;100815.69;2111974;27;47096;-62
2023/09/19 00:47:51;;;;;;;;;0.00;0.00;;;;;23.54;100.00;100820.13;2108941;27;46711;-61
2023/09/19 00:48:51;;;;;;;;;0.00;0.00;;;;;23.52;100.00;100818.50;2113573;27;46721;-63
2023/09/19 00:49:53;;;;;;;;;0.00;0.00;;;;;23.51;100.00;100819.50;2113518;27;46882;-62
2023/09/19 00:50:53;;;;;;;;;0.00;0.00;;;;;23.51;100.00;100819.50;2113850;27;46773;-62
2023/09/19 00:51:55;;;;;;;;;1.00;1.00;;;;;23.49;100.00;100815.03;2113810;27;46644;-59
2023/09/19 00:52:58;;;;;;;;;0.00;0.00;;;;;23.46;100.00;100817.97;2111587;27;46758;-62
2023/09/19 00:53:59;;;;;;;;;1.00;1.00;;;;;23.44;100.00;100814.50;2120707;27;46935;-61
2023/09/19 00:55:00;;;;;;;;;1.00;0.00;;;;;23.44;100.00;100829.91;2112554;27;47061;-62
2023/09/19 00:56:01;;;;;;;;;0.00;0.00;;;;;23.47;100.00;100829.66;2113473;27;46640;-62
2023/09/19 00:57:01;;;;;;;;;0.25;0.25;;;;;23.47;100.00;100816.97;2120647;27;46770;-61
2023/09/19 00:58:02;;;;;;;;;0.00;0.00;;;;;23.46;100.00;100823.38;2114185;27;46395;-62
2023/09/19 00:59:02;;;;;;;;;1.00;0.33;;;;;23.38;100.00;100823.09;2113181;27;46492;-62
2023/09/19 01:00:07;;;;;;;;;2.00;0.00;;;;;23.43;100.00;100820.03;2095536;28;46277;-62
2023/09/19 01:01:07;;;;;;;;;1.50;0.00;;;;;23.44;100.00;100816.34;2095196;27;46886;-60
2023/09/19 01:02:08;;;;;;;;;0.33;0.33;;;;;23.45;100.00;100820.78;2106908;27;46198;-62
2023/09/19 01:03:09;;;;;;;;;0.00;0.00;;;;;23.44;100.00;100821.78;2110182;27;45950;-62
2023/09/19 01:04:10;;;;;;;;;0.00;0.00;;;;;23.43;100.00;100818.19;2110091;27;46399;-61
2023/09/19 01:05:12;;;;;;;;;1.00;0.00;;;;;23.43;100.00;100823.63;2113972;27;46485;-62
2023/09/19 01:06:12;;;;;;;;;1.00;1.00;;;;;23.42;100.00;100823.72;2112170;27;46283;-61
2023/09/19 01:07:14;;;;;;;;;1.33;0.00;;;;;23.41;100.00;100820.16;2104717;27;46204;-60
2023/09/19 01:08:15;;;;;;;;;0.50;0.50;;;;;23.39;100.00;100813.13;2104844;27;46375;-62
2023/09/19 01:09:15;;;;;;;;;0.00;0.00;;;;;23.39;100.00;100813.13;2113211;27;46143;-63
2023/09/19 01:10:21;;;;;;;;;0.00;0.00;;;;;23.39;100.00;100818.53;2104630;27;46315;-63
2023/09/19 01:11:32;;;;;;;;;0.50;0.50;;;;;23.38;100.00;100817.69;2080033;28;46524;-62
2023/09/19 01:12:51;;;;;;;;;0.75;0.75;;;;;23.37;100.00;100820.47;2092682;27;46626;-61
2023/09/19 01:14:18;;;;;;;;;2.00;2.00;;;;;23.38;100.00;100824.94;2097660;28;46655;-62
2023/09/19 01:15:25;;;;;;;;;1.75;0.75;;;;;23.36;100.00;100825.03;2103668;27;46931;-62
2023/09/19 01:16:35;;;;;;;;;1.00;0.50;;;;;23.37;100.00;100829.47;2113035;27;46893;-62
2023/09/19 01:17:48;;;;;;;;;1.75;1.75;;;;;23.39;100.00;100826.66;2116385;27;45883;-62
2023/09/19 01:19:04;;;;;;;;;1.50;0.00;;;;;23.37;100.00;100832.16;2112431;27;47249;-61
2023/09/19 01:20:30;;;;;;;;;0.00;0.00;;;;;23.37;100.00;100831.31;2113226;27;46879;-61
2023/09/19 01:21:42;;;;;;;;;0.25;0.25;;;;;23.37;100.00;100828.59;2113716;27;46717;-61
2023/09/19 01:23:31;;;;;;;;;0.25;0.25;;;;;23.37;100.00;100832.16;2113885;27;46751;-59
2023/09/19 01:25:09;;;;;;;;;0.00;0.00;;;;;23.36;100.00;100827.72;2075756;28;46455;-60
2023/09/19 01:26:43;;;;;;;;;0.00;0.00;;;;;23.32;100.00;100833.50;2076193;28;46530;-63
2023/09/19 01:28:01;;;;;;;;;0.00;0.00;;;;;23.32;100.00;100825.38;2079024;28;46441;-62
2023/09/19 01:29:32;;;;;;;;;2.75;2.75;;;;;23.33;100.00;100835.22;2075298;28;46573;-63
2023/09/19 01:30:39;;;;;;;;;3.50;3.50;;;;;23.29;100.00;100834.59;2074785;28;46757;-60
2023/09/19 01:31:42;;;;;;;;;0.25;0.00;;;;;23.28;100.00;100829.28;2077702;28;46160;-62
2023/09/19 01:32:44;;;;;;;;;1.50;1.50;;;;;23.27;100.00;100824.84;2078058;28;46986;-63
2023/09/19 01:33:59;;;;;;;;;1.75;1.75;;;;;23.27;100.00;100832.97;2078752;28;47196;-61
2023/09/19 01:35:03;;;;;;;;;0.00;0.00;;;;;23.25;100.00;100830.38;2072440;28;46542;-61
2023/09/19 01:36:05;;;;;;;;;0.25;0.00;;;;;23.24;100.00;100828.63;2076596;28;45982;-62
2023/09/19 01:37:05;;;;;;;;;3.00;2.00;;;;;23.22;100.00;100829.72;2075185;28;46438;-63
2023/09/19 01:38:09;;;;;;;;;0.00;0.00;;;;;23.21;100.00;100834.28;2076682;28;46540;-62
2023/09/19 01:39:13;;;;;;;;;0.00;0.00;;;;;23.23;100.00;100831.44;2077873;28;46532;-63
2023/09/19 01:40:17;;;;;;;;;0.25;0.00;;;;;23.22;100.00;100829.72;2070958;28;46474;-63
2023/09/19 01:41:26;;;;;;;;;0.50;0.00;;;;;23.25;100.00;100829.50;2077326;28;46367;-63
2023/09/19 01:42:43;;;;;;;;;0.00;0.00;;;;;23.25;100.00;100832.19;2068961;28;46552;-61
2023/09/19 01:43:46;;;;;;;;;1.00;1.00;;;;;23.23;100.00;100832.31;2074237;28;46783;-63
2023/09/19 01:44:47;;;;;;;;;0.00;0.00;;;;;23.17;100.00;100839.06;2070685;28;46503;-62
2023/09/19 01:46:13;;;;;;;;;0.00;0.00;;;;;23.15;100.00;100837.44;2066834;28;46863;-62
2023/09/19 01:47:26;;;;;;;;;1.00;0.00;;;;;23.13;100.00;100831.28;2078761;28;46886;-60
2023/09/19 01:48:51;;;;;;;;;0.00;0.00;;;;;23.12;100.00;100827.72;2079100;28;46687;-63
2023/09/19 01:50:23;;;;;;;;;1.00;0.75;;;;;23.15;100.00;100838.31;2074730;28;46699;-63
2023/09/19 01:51:43;;;;;;;;;0.00;0.00;;;;;23.16;100.00;100836.47;2076390;28;46604;-62
2023/09/19 01:52:56;;;;;;;;;3.00;0.00;;;;;23.15;100.00;100823.91;2078704;28;45605;-62
2023/09/19 01:54:06;;;;;;;;;1.50;1.00;;;;;23.17;100.00;100833.63;2078858;28;46429;-62
2023/09/19 01:55:09;;;;;;;;;0.00;0.00;;;;;23.16;100.00;100834.63;2069395;28;46183;-63
2023/09/19 01:56:16;;;;;;;;;0.00;0.00;;;;;23.16;100.00;100831.91;2070874;28;46513;-62
2023/09/19 01:57:58;;;;;;;;;0.00;0.00;;;;;23.14;100.00;100833.00;2078220;28;46774;-63
2023/09/19 01:59:05;;;;;;;;;0.00;0.00;;;;;23.13;100.00;100831.28;2045202;28;46276;-63
2023/09/19 02:00:11;;;;;;;;;0.00;0.00;;;;;23.08;100.00;100831.59;2039552;28;46517;-62
2023/09/19 02:01:18;;;;;;;;;1.25;0.50;;;;;23.09;100.00;100840.56;2046041;28;46826;-62
2023/09/19 02:02:22;;;;;;;;;0.00;0.00;;;;;23.07;100.00;100840.69;2070828;28;46812;-60
2023/09/19 02:03:24;;;;;;;;;0.00;0.00;;;;;23.06;100.00;100840.81;2070598;28;46318;-63
2023/09/19 02:04:24;;;;;;;;;0.00;0.00;;;;;23.04;100.00;100848.19;2071222;28;46723;-62
2023/09/19 02:05:27;;;;;;;;;0.00;0.00;;;;;23.01;100.00;100848.41;2073466;28;46582;-62
2023/09/19 02:06:28;;;;;;;;;1.00;0.00;;;;;23.01;100.00;100851.97;2069320;28;46435;-61
2023/09/19 02:07:28;;;;;;;;;0.00;0.00;;;;;23.02;100.00;100847.41;2065640;28;46606;-63
2023/09/19 02:08:31;;;;;;;;;0.00;0.00;;;;;23.04;100.00;100853.59;2069652;28;46829;-59
2023/09/19 02:09:35;;;;;;;;;0.00;0.00;;;;;23.03;100.00;100846.44;2070562;28;46489;-62
2023/09/19 02:10:35;;;;;;;;;0.00;0.00;;;;;23.03;100.00;100850.00;2070187;28;46506;-62
2023/09/19 02:11:36;;;;;;;;;0.00;0.00;;;;;23.04;100.00;100845.47;2070564;28;46814;-61
2023/09/19 02:12:38;;;;;;;;;1.25;0.25;;;;;23.02;100.00;100840.16;2070802;28;46316;-62
2023/09/19 02:13:38;;;;;;;;;0.00;0.00;;;;;23.03;100.00;100843.75;2071034;28;46942;-62
2023/09/19 02:14:38;;;;;;;;;1.00;0.00;;;;;23.02;100.00;100850.13;2069747;28;46723;-61
2023/09/19 02:15:40;;;;;;;;;0.00;0.00;;;;;23.04;100.00;100845.47;2062112;28;47174;-62
2023/09/19 02:16:41;;;;;;;;;2.00;0.00;;;;;23.03;100.00;100847.31;2062490;28;46409;-62
2023/09/19 02:17:43;;;;;;;;;0.00;0.00;;;;;23.03;100.00;100847.31;2070409;28;46281;-61
2023/09/19 02:18:44;;;;;;;;;0.25;0.00;;;;;23.02;100.00;100851.00;2070574;28;46583;-63
2023/09/19 02:19:44;;;;;;;;;0.00;0.00;;;;;23.00;100.00;100842.13;2070261;28;46807;-62
2023/09/19 02:20:45;;;;;;;;;0.00;0.00;;;;;23.00;100.00;100844.81;2070477;28;46336;-62
2023/09/19 02:21:46;;;;;;;;;0.25;0.00;;;;;23.02;100.00;100845.59;2070525;28;46295;-61
2023/09/19 02:22:46;;;;;;;;;0.00;0.00;;;;;23.01;100.00;100840.28;2070301;28;46511;-62
2023/09/19 02:23:47;;;;;;;;;0.00;0.00;;;;;22.99;100.00;100847.63;2069087;28;46155;-62
2023/09/19 02:24:48;;;;;;;;;0.00;0.00;;;;;22.97;100.00;100845.03;2070989;28;46228;-61
2023/09/19 02:25:54;;;;;;;;;2.00;0.00;;;;;22.97;100.00;100841.44;2068224;28;46721;-61
2023/09/19 02:26:55;;;;;;;;;1.00;1.00;;;;;22.95;100.00;100844.28;2062721;28;46070;-62
2023/09/19 02:27:58;;;;;;;;;1.00;1.00;;;;;22.95;100.00;100843.41;2053732;28;46160;-62
2023/09/19 02:28:59;;;;;;;;;1.00;1.00;;;;;22.95;100.00;100840.69;2058892;28;47184;-61
2023/09/19 02:30:02;;;;;;;;;1.75;0.75;;;;;22.95;100.00;100838.00;2070401;28;45359;-62
2023/09/19 02:31:05;;;;;;;;;1.75;0.75;;;;;22.93;100.00;100832.69;2070264;28;47118;-62
2023/09/19 02:32:06;;;;;;;;;0.25;0.00;;;;;22.92;100.00;100833.66;2071083;28;46761;-63
2023/09/19 02:33:06;;;;;;;;;2.00;1.00;;;;;22.92;100.00;100838.22;2062673;28;45862;-61
2023/09/19 02:34:08;;;;;;;;;1.33;1.33;;;;;22.91;100.00;100840.06;2062433;28;46650;-62
2023/09/19 02:35:10;;;;;;;;;0.50;0.50;;;;;22.89;100.00;100836.59;2070537;28;46497;-62
2023/09/19 02:36:11;;;;;;;;;2.00;1.00;;;;;22.90;100.00;100839.19;2088899;27;46880;-62
2023/09/19 02:37:13;;;;;;;;;0.00;0.00;;;;;22.90;100.00;100846.44;2111874;27;46482;-62
2023/09/19 02:38:14;;;;;;;;;0.75;0.00;;;;;22.89;100.00;100844.72;2107311;27;46268;-62
2023/09/19 02:39:14;;;;;;;;;0.00;0.00;;;;;22.94;100.00;100849.81;2111310;27;46281;-62
2023/09/19 02:40:18;;;;;;;;;0.00;0.00;;;;;22.92;100.00;100844.50;2112677;27;46630;-62
2023/09/19 02:41:18;;;;;;;;;0.00;0.00;;;;;22.90;100.00;100846.44;2112387;27;46815;-61
2023/09/19 02:42:19;;;;;;;;;2.00;1.00;;;;;22.90;100.00;100839.19;2110905;27;46012;-62
2023/09/19 02:43:19;;;;;;;;;0.00;0.00;;;;;22.90;100.00;100849.16;2112820;27;46352;-62
2023/09/19 02:44:20;;;;;;;;;0.67;0.67;;;;;22.89;100.00;100845.59;2112461;27;47077;-62
2023/09/19 02:45:20;;;;;;;;;1.67;0.33;;;;;22.88;100.00;100843.00;2103600;28;46020;-61
2023/09/19 02:46:21;;;;;;;;;0.00;0.00;;;;;22.89;100.00;100834.75;2095819;28;46390;-64
2023/09/19 02:47:21;;;;;;;;;0.00;0.00;;;;;22.91;100.00;100845.47;2112880;27;46193;-62
2023/09/19 02:48:21;;;;;;;;;0.00;0.00;;;;;22.91;100.00;100842.78;2113190;27;46369;-62
2023/09/19 02:49:22;;;;;;;;;1.33;1.33;;;;;22.91;100.00;100848.19;2112796;27;46477;-63
2023/09/19 02:50:22;;;;;;;;;0.33;0.00;;;;;22.92;100.00;100844.50;2112934;27;46511;-62
2023/09/19 02:51:22;;;;;;;;;0.00;0.00;;;;;22.87;100.00;100843.97;2112908;27;46919;-61
2023/09/19 02:52:24;;;;;;;;;0.00;0.00;;;;;22.85;100.00;100844.06;2113785;27;46578;-62
2023/09/19 02:53:25;;;;;;;;;0.00;0.00;;;;;22.86;100.00;100844.91;2106322;27;46712;-61
2023/09/19 02:54:25;;;;;;;;;0.00;0.00;;;;;22.86;100.00;100850.31;2103812;28;46163;-61
2023/09/19 02:55:25;;;;;;;;;0.00;0.00;;;;;22.86;100.00;100845.78;2104885;27;46836;-61
2023/09/19 02:56:26;;;;;;;;;0.67;0.00;;;;;22.85;100.00;100846.75;2103103;27;46451;-62
2023/09/19 02:57:27;;;;;;;;;0.00;0.00;;;;;22.87;100.00;100844.84;2103740;28;46087;-62
2023/09/19 02:58:30;;;;;;;;;0.25;0.25;;;;;22.87;100.00;100852.97;2103217;28;46477;-61
2023/09/19 02:59:31;;;;;;;;;5.00;0.00;;;;;22.89;100.00;100850.13;2103542;28;46650;-63
2023/09/19 03:00:33;;;;;;;;;0.00;0.00;;;;;22.83;100.00;100850.56;2103766;28;46862;-61
2023/09/19 03:01:34;;;;;;;;;1.00;1.00;;;;;22.79;100.00;100849.00;2103704;28;46599;-61
2023/09/19 03:02:35;;;;;;;;;0.75;0.00;;;;;22.79;100.00;100844.47;2103759;28;46748;-62
2023/09/19 03:03:36;;;;;;;;;0.00;0.00;;;;;22.79;100.00;100838.19;2085847;28;46930;-61
2023/09/19 03:04:37;;;;;;;;;0.00;0.00;;;;;22.81;100.00;100841.66;2087377;28;46917;-62
2023/09/19 03:05:38;;;;;;;;;1.00;1.00;;;;;22.83;100.00;100831.63;2095897;28;46038;-62
2023/09/19 03:06:40;;;;;;;;;1.00;1.00;;;;;22.81;100.00;100828.13;2095630;28;45939;-61
2023/09/19 03:07:42;;;;;;;;;0.00;0.00;;;;;22.81;100.00;100837.09;2078438;28;46368;-62
2023/09/19 03:08:43;;;;;;;;;0.00;0.00;;;;;22.80;100.00;100843.50;2083613;28;46446;-63
2023/09/19 03:09:44;;;;;;;;;0.00;0.00;;;;;22.79;100.00;100841.75;2093142;28;46641;-61
2023/09/19 03:10:47;;;;;;;;;0.00;0.00;;;;;22.79;100.00;100840.91;2093247;28;46273;-62
2023/09/19 03:11:48;;;;;;;;;1.25;1.25;;;;;22.78;100.00;100836.47;2094955;28;46686;-62
2023/09/19 03:12:49;;;;;;;;;2.00;0.67;;;;;22.78;100.00;100839.16;2095197;28;46269;-62
2023/09/19 03:13:53;;;;;;;;;1.75;0.00;;;;;22.78;100.00;100833.75;2094808;28;46557;-62
2023/09/19 03:14:54;;;;;;;;;1.40;0.00;;;;;22.74;100.00;100841.25;2095080;28;46572;-62
2023/09/19 03:15:56;;;;;;;;;1.00;1.00;;;;;22.72;100.00;100836.88;2095070;28;46784;-62
2023/09/19 03:16:56;;;;;;;;;0.00;0.00;;;;;22.72;100.00;100843.16;2089770;28;46576;-62
2023/09/19 03:17:57;;;;;;;;;1.00;0.00;;;;;22.68;100.00;100836.25;2095392;28;46239;-62
2023/09/19 03:18:59;;;;;;;;;0.50;0.00;;;;;22.69;100.00;100840.66;2088067;28;46486;-62
2023/09/19 03:20:00;;;;;;;;;0.00;0.00;;;;;22.70;100.00;100845.09;2087877;28;46791;-61
2023/09/19 03:21:00;;;;;;;;;0.00;0.00;;;;;22.69;100.00;100840.66;2096526;28;46271;-63
2023/09/19 03:22:02;;;;;;;;;0.00;0.00;;;;;22.69;100.00;100834.41;2095462;28;45989;-62
2023/09/19 03:23:05;;;;;;;;;0.25;0.25;;;;;22.65;100.00;100835.59;2094252;28;46635;-61
2023/09/19 03:24:06;;;;;;;;;0.00;0.00;;;;;22.64;100.00;100829.31;2095672;28;46418;-62
2023/09/19 03:25:11;;;;;;;;;1.00;0.00;;;;;22.58;100.00;100833.31;2096277;28;46712;-62
2023/09/19 03:26:13;;;;;;;;;1.00;1.00;;;;;22.56;100.00;100831.69;2100683;28;46561;-63
2023/09/19 03:27:16;;;;;;;;;0.25;0.25;;;;;22.55;100.00;100838.06;2105107;28;46143;-63
2023/09/19 03:28:17;;;;;;;;;1.00;0.00;;;;;22.54;100.00;100845.31;2103776;28;46410;-62
2023/09/19 03:29:18;;;;;;;;;0.00;0.00;;;;;22.52;100.00;100836.44;2104804;28;46895;-62
2023/09/19 03:30:18;;;;;;;;;0.00;0.00;;;;;22.52;100.00;100843.69;2104813;27;46972;-62
2023/09/19 03:31:18;;;;;;;;;0.00;0.00;;;;;22.51;100.00;100845.53;2105051;28;46184;-63
2023/09/19 03:32:19;;;;;;;;;1.00;0.33;;;;;22.50;100.00;100834.84;2104594;27;46756;-62
2023/09/19 03:33:20;;;;;;;;;1.67;1.33;;;;;22.50;100.00;100834.84;2090162;28;46582;-62
2023/09/19 03:34:20;;;;;;;;;0.00;0.00;;;;;22.50;100.00;100843.81;2093544;28;46632;-60
2023/09/19 03:35:21;;;;;;;;;1.00;0.00;;;;;22.48;100.00;100837.63;2109801;27;46565;-62
2023/09/19 03:36:21;;;;;;;;;1.00;0.33;;;;;22.47;100.00;100835.88;2114514;27;46803;-62
2023/09/19 03:37:21;;;;;;;;;1.33;0.00;;;;;22.48;100.00;100831.34;2114517;27;46604;-62
2023/09/19 03:38:22;;;;;;;;;0.00;0.00;;;;;22.44;100.00;100835.25;2111344;27;46171;-62
2023/09/19 03:39:22;;;;;;;;;3.00;0.00;;;;;22.40;100.00;100831.03;2108165;27;46470;-62
2023/09/19 03:40:23;;;;;;;;;1.00;1.00;;;;;22.60;100.00;100836.75;2105248;28;46923;-61
2023/09/19 03:41:23;;;;;;;;;0.00;0.00;;;;;22.62;100.00;100833.97;2100999;28;46729;-61
2023/09/19 03:42:26;;;;;;;;;0.67;0.67;;;;;22.64;100.00;100836.56;2114068;27;46675;-61
2023/09/19 03:43:26;;;;;;;;;1.25;0.25;;;;;22.63;100.00;100833.00;2109263;27;47015;-63
2023/09/19 03:44:27;;;;;;;;;0.00;0.00;;;;;22.62;100.00;100847.50;2110258;27;46370;-62
2023/09/19 03:45:27;;;;;;;;;0.00;0.00;;;;;22.60;100.00;100835.91;2107831;27;46223;-62
2023/09/19 03:46:28;;;;;;;;;5.00;2.50;;;;;22.59;100.00;100832.31;2112879;27;46201;-61
2023/09/19 03:47:28;;;;;;;;;2.00;2.00;;;;;22.59;100.00;100839.56;2114233;27;46916;-62
2023/09/19 03:48:29;;;;;;;;;7.00;7.00;;;;;22.59;100.00;100840.44;2114309;27;46459;-62
2023/09/19 03:49:30;;;;;;;;;10.25;9.50;;;;;22.60;100.00;100834.06;2104903;28;46738;-62
2023/09/19 03:50:30;;;;;;;;;9.75;8.25;;;;;22.60;100.00;100830.50;2104995;27;46436;-60
2023/09/19 03:51:31;;;;;;;;;5.00;5.00;;;;;22.60;100.00;100833.19;2104263;28;46406;-62
2023/09/19 03:52:31;;;;;;;;;1.00;1.00;;;;;22.59;100.00;100840.44;2104538;28;46601;-61
2023/09/19 03:53:32;;;;;;;;;3.00;1.00;;;;;22.60;100.00;100833.19;2103199;28;46530;-62
2023/09/19 03:54:32;;;;;;;;;1.00;1.00;;;;;22.63;100.00;100840.25;2104091;28;46368;-62
2023/09/19 03:55:35;;;;;;;;;1.67;0.33;;;;;22.61;100.00;100845.75;2104427;28;46934;-62
2023/09/19 03:56:35;;;;;;;;;0.00;0.00;;;;;22.59;100.00;100845.00;2104471;28;47296;-63
2023/09/19 03:57:36;;;;;;;;;2.67;0.00;;;;;22.55;100.00;100840.78;2104813;28;46166;-62
2023/09/19 03:58:39;;;;;;;;;1.00;0.33;;;;;22.53;100.00;100840.88;2096519;28;46856;-63
2023/09/19 03:59:39;;;;;;;;;4.50;4.00;;;;;22.54;100.00;100839.91;2096260;28;46739;-61
2023/09/19 04:00:40;;;;;;;;;6.00;4.33;;;;;22.53;100.00;100834.63;2104671;28;46193;-63
2023/09/19 04:01:41;;;;;;;;;0.67;0.67;;;;;22.52;100.00;100839.16;2102683;28;46674;-62
2023/09/19 04:02:41;;;;;;;;;9.00;8.00;;;;;22.52;100.00;100838.28;2101089;28;46606;-61
2023/09/19 04:03:47;;;;;;;;;11.00;9.00;;;;;22.52;100.00;100835.59;2096228;28;47114;-62
2023/09/19 04:04:48;;;;;;;;;6.00;5.00;;;;;22.51;100.00;100833.84;2104962;28;46444;-63
2023/09/19 04:05:49;;;;;;;;;1.33;1.33;;;;;22.50;100.00;100832.13;2087394;28;46295;-63
2023/09/19 04:06:49;;;;;;;;;4.00;2.33;;;;;22.51;100.00;100831.16;2079034;28;46439;-63
2023/09/19 04:07:53;;;;;;;;;1.00;0.67;;;;;22.48;100.00;100829.50;2096102;28;46890;-62
2023/09/19 04:08:54;;;;;;;;;1.00;1.00;;;;;22.51;100.00;100836.56;2104451;28;46650;-60
2023/09/19 04:09:54;;;;;;;;;1.00;0.00;;;;;22.51;100.00;100836.56;2096095;28;45990;-62
2023/09/19 04:10:55;;;;;;;;;1.33;0.00;;;;;22.50;100.00;100824.88;2094467;28;46855;-61
2023/09/19 04:11:56;;;;;;;;;1.33;0.00;;;;;22.49;100.00;100828.56;2099179;28;46579;-63
2023/09/19 04:12:56;;;;;;;;;0.00;0.00;;;;;22.49;100.00;100833.97;2103592;28;46720;-62
2023/09/19 04:13:57;;;;;;;;;1.00;1.00;;;;;22.49;100.00;100825.00;2096176;28;46421;-62
2023/09/19 04:14:57;;;;;;;;;1.00;1.00;;;;;22.49;100.00;100828.56;2096703;28;46208;-62
2023/09/19 04:15:57;;;;;;;;;1.33;0.00;;;;;22.49;100.00;100831.25;2104586;28;46843;-62
2023/09/19 04:16:58;;;;;;;;;0.00;0.00;;;;;22.48;100.00;100826.78;2104737;28;46575;-63
2023/09/19 04:17:58;;;;;;;;;0.00;0.00;;;;;22.47;100.00;100824.19;2095767;28;46280;-61
2023/09/19 04:18:58;;;;;;;;;1.00;1.00;;;;;22.48;100.00;100823.22;2096681;28;46474;-61
2023/09/19 04:19:59;;;;;;;;;1.00;0.33;;;;;22.48;100.00;100828.63;2104696;28;46313;-61
2023/09/19 04:21:03;;;;;;;;;1.00;1.00;;;;;22.48;100.00;100829.50;2105942;27;46791;-61
2023/09/19 04:22:04;;;;;;;;;2.50;0.00;;;;;22.30;100.00;100828.94;2106189;27;47011;-62
2023/09/19 04:23:05;;;;;;;;;1.00;0.25;;;;;22.39;100.00;100818.47;2105140;27;46311;-61
2023/09/19 04:24:06;;;;;;;;;0.25;0.25;;;;;22.46;100.00;100825.19;2114047;27;45915;-62
2023/09/19 04:25:07;;;;;;;;;1.00;1.00;;;;;22.46;100.00;100822.47;2104149;27;45697;-60
2023/09/19 04:26:07;;;;;;;;;0.00;0.00;;;;;22.45;100.00;100820.75;2104348;28;46580;-61
2023/09/19 04:27:09;;;;;;;;;1.33;0.00;;;;;22.44;100.00;100819.88;2113457;27;46709;-60
2023/09/19 04:28:10;;;;;;;;;0.00;0.00;;;;;22.45;100.00;100823.44;2114639;27;46655;-61
2023/09/19 04:29:13;;;;;;;;;0.00;0.00;;;;;22.45;100.00;100831.56;2112292;27;46830;-61
2023/09/19 04:30:14;;;;;;;;;0.00;0.00;;;;;22.45;100.00;100831.56;2113143;27;46458;-61
2023/09/19 04:31:15;;;;;;;;;0.00;0.00;;;;;22.44;100.00;100827.13;2114138;27;47051;-62
2023/09/19 04:32:17;;;;;;;;;1.00;1.00;;;;;22.44;100.00;100833.41;2107276;27;46521;-62
2023/09/19 04:33:17;;;;;;;;;0.00;0.00;;;;;22.44;100.00;100833.41;2113881;27;46444;-62
2023/09/19 04:34:17;;;;;;;;;2.00;1.00;;;;;22.45;100.00;100827.00;2113878;27;46309;-62
2023/09/19 04:35:18;;;;;;;;;0.67;0.67;;;;;22.46;100.00;100826.03;2105225;27;45382;-62
2023/09/19 04:36:18;;;;;;;;;0.00;0.00;;;;;22.46;100.00;100833.28;2096374;28;46425;-62
2023/09/19 04:37:18;;;;;;;;;1.67;0.33;;;;;22.45;100.00;100821.59;2104903;28;46180;-62
2023/09/19 04:38:19;;;;;;;;;2.00;0.00;;;;;22.46;100.00;100834.16;2113930;27;45610;-62
2023/09/19 04:39:20;;;;;;;;;0.00;0.00;;;;;22.46;100.00;100828.75;2113907;27;46528;-62
2023/09/19 04:40:22;;;;;;;;;0.75;0.00;;;;;22.45;100.00;100829.72;2113540;27;46297;-62
2023/09/19 04:41:24;;;;;;;;;0.75;0.75;;;;;22.45;100.00;100831.56;2112761;27;46720;-62
2023/09/19 04:42:24;;;;;;;;;0.00;0.00;;;;;22.42;100.00;100824.53;2111003;27;46494;-61
2023/09/19 04:43:25;;;;;;;;;0.67;0.67;;;;;22.41;100.00;100832.75;2113855;27;46927;-62
2023/09/19 04:44:26;;;;;;;;;0.00;0.00;;;;;22.37;100.00;100825.84;2113878;27;46918;-62
2023/09/19 04:45:27;;;;;;;;;1.00;1.00;;;;;22.36;100.00;100824.97;2113639;27;46505;-62
2023/09/19 04:46:28;;;;;;;;;0.00;0.00;;;;;22.35;100.00;100834.03;2112602;27;46371;-62
2023/09/19 04:47:28;;;;;;;;;2.00;0.33;;;;;22.36;100.00;100824.06;2115016;27;46199;-62
2023/09/19 04:48:29;;;;;;;;;0.33;0.00;;;;;22.36;100.00;100826.78;2111946;27;46467;-63
2023/09/19 04:49:29;;;;;;;;;0.00;0.00;;;;;22.36;100.00;100821.38;2104672;27;46783;-61
2023/09/19 04:50:30;;;;;;;;;0.00;0.00;;;;;22.38;100.00;100827.56;2104547;27;46530;-61